sensor_id;sensor_type;location;lat;lon;timestamp;temperature;humidity
25112;DHT22;13092;51.996;4.458;2024-01-06T00:01:15;8.60;99.90
25112;DHT22;13092;51.996;4.458;2024-01-06T00:03:46;8.10;99.90
25112;DHT22;13092;51.996;4.458;2024-01-06T00:06:15;8.60;99.90
25112;DHT22;13092;51.996;4.458;2024-01-06T00:08:44;7.40;99.90
25112;DHT22;13092;51.996;4.458;2024-01-06T00:11:12;8.60;99.90
25112;DHT22;13092;51.996;4.458;2024-01-06T00:13:41;8.50;99.90
25112;DHT22;13092;51.996;4.458;2024-01-06T00:16:11;7.40;99.90
25112;DHT22;13092;51.996;4.458;2024-01-06T00:18:39;7.80;99.90
25112;DHT22;13092;51.996;4.458;2024-01-06T00:21:08;8.00;99.90
25112;DHT22;13092;51.996;4.458;2024-01-06T00:23:36;7.30;99.90
25112;DHT22;13092;51.996;4.458;2024-01-06T00:26:04;7.40;99.90
25112;DHT22;13092;51.996;4.458;2024-01-06T00:28:32;7.50;99.90
25112;DHT22;13092;51.996;4.458;2024-01-06T00:31:02;8.10;99.90
25112;DHT22;13092;51.996;4.458;2024-01-06T00:33:31;7.40;99.90
25112;DHT22;13092;51.996;4.458;2024-01-06T00:36:00;8.60;99.90
25112;DHT22;13092;51.996;4.458;2024-01-06T00:38:28;7.80;99.90
25112;DHT22;13092;51.996;4.458;2024-01-06T00:40:56;8.50;99.90
25112;DHT22;13092;51.996;4.458;2024-01-06T00:43:24;8.50;99.90
25112;DHT22;13092;51.996;4.458;2024-01-06T00:45:52;8.20;99.90
25112;DHT22;13092;51.996;4.458;2024-01-06T00:48:22;8.50;99.90
25112;DHT22;13092;51.996;4.458;2024-01-06T00:50:50;7.30;99.90
25112;DHT22;13092;51.996;4.458;2024-01-06T00:53:18;7.30;99.90
25112;DHT22;13092;51.996;4.458;2024-01-06T00:55:46;7.30;99.90
25112;DHT22;13092;51.996;4.458;2024-01-06T00:58:14;8.20;99.90
25112;DHT22;13092;51.996;4.458;2024-01-06T01:00:42;7.70;99.90
25112;DHT22;13092;51.996;4.458;2024-01-06T01:03:10;7.40;99.90
25112;DHT22;13092;51.996;4.458;2024-01-06T01:05:40;7.30;99.90
25112;DHT22;13092;51.996;4.458;2024-01-06T01:08:11;7.90;99.90
25112;DHT22;13092;51.996;4.458;2024-01-06T01:10:39;6.30;99.90
25112;DHT22;13092;51.996;4.458;2024-01-06T01:13:08;7.20;99.90
25112;DHT22;13092;51.996;4.458;2024-01-06T01:15:36;8.00;99.90
25112;DHT22;13092;51.996;4.458;2024-01-06T01:18:05;7.30;99.90
25112;DHT22;13092;51.996;4.458;2024-01-06T01:20:33;7.80;99.90
25112;DHT22;13092;51.996;4.458;2024-01-06T01:23:03;7.60;99.90
25112;DHT22;13092;51.996;4.458;2024-01-06T01:25:31;6.80;99.90
25112;DHT22;13092;51.996;4.458;2024-01-06T01:28:03;7.70;99.90
25112;DHT22;13092;51.996;4.458;2024-01-06T01:30:31;7.20;99.90
25112;DHT22;13092;51.996;4.458;2024-01-06T01:33:00;7.40;99.90
25112;DHT22;13092;51.996;4.458;2024-01-06T01:35:30;8.10;99.90
25112;DHT22;13092;51.996;4.458;2024-01-06T01:37:58;7.30;99.90
25112;DHT22;13092;51.996;4.458;2024-01-06T01:40:27;8.30;99.90
25112;DHT22;13092;51.996;4.458;2024-01-06T01:42:56;7.80;99.90
25112;DHT22;13092;51.996;4.458;2024-01-06T01:45:24;8.40;99.90
25112;DHT22;13092;51.996;4.458;2024-01-06T01:47:52;8.10;99.90
25112;DHT22;13092;51.996;4.458;2024-01-06T01:50:21;7.50;99.90
25112;DHT22;13092;51.996;4.458;2024-01-06T01:52:54;8.50;99.90
25112;DHT22;13092;51.996;4.458;2024-01-06T01:55:23;8.10;99.90
25112;DHT22;13092;51.996;4.458;2024-01-06T01:57:53;7.20;99.90
25112;DHT22;13092;51.996;4.458;2024-01-06T02:00:21;8.30;99.90
25112;DHT22;13092;51.996;4.458;2024-01-06T02:02:53;7.10;99.90
25112;DHT22;13092;51.996;4.458;2024-01-06T02:05:21;7.00;99.90
25112;DHT22;13092;51.996;4.458;2024-01-06T02:07:49;7.40;99.90
25112;DHT22;13092;51.996;4.458;2024-01-06T02:10:18;7.50;99.90
25112;DHT22;13092;51.996;4.458;2024-01-06T02:12:47;7.20;99.90
25112;DHT22;13092;51.996;4.458;2024-01-06T02:15:17;6.80;99.90
25112;DHT22;13092;51.996;4.458;2024-01-06T02:17:45;7.60;99.90
25112;DHT22;13092;51.996;4.458;2024-01-06T02:20:14;6.60;99.90
25112;DHT22;13092;51.996;4.458;2024-01-06T02:22:48;7.50;99.90
25112;DHT22;13092;51.996;4.458;2024-01-06T02:25:17;7.40;99.90
25112;DHT22;13092;51.996;4.458;2024-01-06T02:27:46;7.70;99.90
25112;DHT22;13092;51.996;4.458;2024-01-06T02:30:14;7.40;99.90
25112;DHT22;13092;51.996;4.458;2024-01-06T02:32:43;6.50;99.90
25112;DHT22;13092;51.996;4.458;2024-01-06T02:35:11;7.40;99.90
25112;DHT22;13092;51.996;4.458;2024-01-06T02:37:39;6.50;99.90
25112;DHT22;13092;51.996;4.458;2024-01-06T02:40:10;6.30;99.90
25112;DHT22;13092;51.996;4.458;2024-01-06T02:42:39;6.40;99.90
25112;DHT22;13092;51.996;4.458;2024-01-06T02:45:08;7.10;99.90
25112;DHT22;13092;51.996;4.458;2024-01-06T02:47:39;6.30;99.90
25112;DHT22;13092;51.996;4.458;2024-01-06T02:50:08;6.50;99.90
25112;DHT22;13092;51.996;4.458;2024-01-06T02:52:36;6.40;99.90
25112;DHT22;13092;51.996;4.458;2024-01-06T02:55:05;7.70;99.90
25112;DHT22;13092;51.996;4.458;2024-01-06T02:57:36;6.50;99.90
25112;DHT22;13092;51.996;4.458;2024-01-06T03:00:05;6.60;99.90
25112;DHT22;13092;51.996;4.458;2024-01-06T03:02:33;6.50;99.90
25112;DHT22;13092;51.996;4.458;2024-01-06T03:05:02;7.10;99.90
25112;DHT22;13092;51.996;4.458;2024-01-06T03:07:31;6.40;99.90
25112;DHT22;13092;51.996;4.458;2024-01-06T03:10:02;6.80;99.90
25112;DHT22;13092;51.996;4.458;2024-01-06T03:12:30;6.30;99.90
25112;DHT22;13092;51.996;4.458;2024-01-06T03:15:00;7.10;99.90
25112;DHT22;13092;51.996;4.458;2024-01-06T03:17:28;7.10;99.90
25112;DHT22;13092;51.996;4.458;2024-01-06T03:19:56;7.20;99.90
25112;DHT22;13092;51.996;4.458;2024-01-06T03:22:25;7.40;99.90
25112;DHT22;13092;51.996;4.458;2024-01-06T03:24:55;7.00;99.90
25112;DHT22;13092;51.996;4.458;2024-01-06T03:27:25;6.30;99.90
25112;DHT22;13092;51.996;4.458;2024-01-06T03:29:53;7.50;99.90
25112;DHT22;13092;51.996;4.458;2024-01-06T03:32:23;6.90;99.90
25112;DHT22;13092;51.996;4.458;2024-01-06T03:34:51;7.10;99.90
25112;DHT22;13092;51.996;4.458;2024-01-06T03:37:20;7.50;99.90
25112;DHT22;13092;51.996;4.458;2024-01-06T03:39:49;7.80;99.90
25112;DHT22;13092;51.996;4.458;2024-01-06T03:42:17;6.40;99.90
25112;DHT22;13092;51.996;4.458;2024-01-06T03:44:46;6.20;99.90
25112;DHT22;13092;51.996;4.458;2024-01-06T03:47:14;6.30;99.90
25112;DHT22;13092;51.996;4.458;2024-01-06T03:49:43;7.20;99.90
25112;DHT22;13092;51.996;4.458;2024-01-06T03:52:12;7.60;99.90
25112;DHT22;13092;51.996;4.458;2024-01-06T03:54:40;6.40;99.90
25112;DHT22;13092;51.996;4.458;2024-01-06T03:57:09;6.80;99.90
25112;DHT22;13092;51.996;4.458;2024-01-06T03:59:37;6.70;99.90
25112;DHT22;13092;51.996;4.458;2024-01-06T04:02:05;6.40;99.90
25112;DHT22;13092;51.996;4.458;2024-01-06T04:04:33;7.20;99.90
25112;DHT22;13092;51.996;4.458;2024-01-06T04:07:03;7.30;99.90
25112;DHT22;13092;51.996;4.458;2024-01-06T04:09:33;7.70;99.90
25112;DHT22;13092;51.996;4.458;2024-01-06T04:12:01;7.00;99.90
25112;DHT22;13092;51.996;4.458;2024-01-06T04:14:30;6.40;99.90
25112;DHT22;13092;51.996;4.458;2024-01-06T04:16:58;7.10;99.90
25112;DHT22;13092;51.996;4.458;2024-01-06T04:19:26;6.40;99.90
25112;DHT22;13092;51.996;4.458;2024-01-06T04:21:54;6.30;99.90
25112;DHT22;13092;51.996;4.458;2024-01-06T04:24:24;6.30;99.90
25112;DHT22;13092;51.996;4.458;2024-01-06T04:26:52;7.40;99.90
25112;DHT22;13092;51.996;4.458;2024-01-06T04:29:20;6.50;99.90
25112;DHT22;13092;51.996;4.458;2024-01-06T04:31:49;6.20;99.90
25112;DHT22;13092;51.996;4.458;2024-01-06T04:34:17;7.30;99.90
25112;DHT22;13092;51.996;4.458;2024-01-06T04:36:45;6.30;99.90
25112;DHT22;13092;51.996;4.458;2024-01-06T04:39:15;7.40;99.90
25112;DHT22;13092;51.996;4.458;2024-01-06T04:41:45;6.40;99.90
25112;DHT22;13092;51.996;4.458;2024-01-06T04:44:13;6.90;99.90
25112;DHT22;13092;51.996;4.458;2024-01-06T04:46:44;6.30;99.90
25112;DHT22;13092;51.996;4.458;2024-01-06T04:49:12;6.50;99.90
25112;DHT22;13092;51.996;4.458;2024-01-06T04:51:41;7.50;99.90
25112;DHT22;13092;51.996;4.458;2024-01-06T04:54:09;6.20;99.90
25112;DHT22;13092;51.996;4.458;2024-01-06T04:56:40;7.00;99.90
25112;DHT22;13092;51.996;4.458;2024-01-06T04:59:09;6.50;99.90
25112;DHT22;13092;51.996;4.458;2024-01-06T05:01:39;6.30;99.90
25112;DHT22;13092;51.996;4.458;2024-01-06T05:04:07;6.30;99.90
25112;DHT22;13092;51.996;4.458;2024-01-06T05:06:35;6.90;99.90
25112;DHT22;13092;51.996;4.458;2024-01-06T05:09:03;7.40;99.90
25112;DHT22;13092;51.996;4.458;2024-01-06T05:11:31;6.50;99.90
25112;DHT22;13092;51.996;4.458;2024-01-06T05:14:00;6.20;99.90
25112;DHT22;13092;51.996;4.458;2024-01-06T05:16:29;7.10;99.90
25112;DHT22;13092;51.996;4.458;2024-01-06T05:18:57;7.20;99.90
25112;DHT22;13092;51.996;4.458;2024-01-06T05:21:28;6.70;99.90
25112;DHT22;13092;51.996;4.458;2024-01-06T05:23:56;6.10;99.90
25112;DHT22;13092;51.996;4.458;2024-01-06T05:26:25;7.20;99.90
25112;DHT22;13092;51.996;4.458;2024-01-06T05:28:55;6.90;99.90
25112;DHT22;13092;51.996;4.458;2024-01-06T05:31:23;7.00;99.90
25112;DHT22;13092;51.996;4.458;2024-01-06T05:33:53;6.10;99.90
25112;DHT22;13092;51.996;4.458;2024-01-06T05:36:21;6.00;99.90
25112;DHT22;13092;51.996;4.458;2024-01-06T05:38:50;6.10;99.90
25112;DHT22;13092;51.996;4.458;2024-01-06T05:41:19;6.80;99.90
25112;DHT22;13092;51.996;4.458;2024-01-06T05:43:47;7.10;99.90
25112;DHT22;13092;51.996;4.458;2024-01-06T05:46:20;7.10;99.90
25112;DHT22;13092;51.996;4.458;2024-01-06T05:48:49;7.10;99.90
25112;DHT22;13092;51.996;4.458;2024-01-06T05:51:19;6.10;99.90
25112;DHT22;13092;51.996;4.458;2024-01-06T05:53:47;7.40;99.90
25112;DHT22;13092;51.996;4.458;2024-01-06T05:56:22;7.40;99.90
25112;DHT22;13092;51.996;4.458;2024-01-06T05:58:52;6.10;99.90
25112;DHT22;13092;51.996;4.458;2024-01-06T06:01:20;6.80;99.90
25112;DHT22;13092;51.996;4.458;2024-01-06T06:03:50;6.80;99.90
25112;DHT22;13092;51.996;4.458;2024-01-06T06:06:20;7.30;99.90
25112;DHT22;13092;51.996;4.458;2024-01-06T06:08:48;6.80;99.90
25112;DHT22;13092;51.996;4.458;2024-01-06T06:11:16;6.70;99.90
25112;DHT22;13092;51.996;4.458;2024-01-06T06:13:47;6.10;99.90
25112;DHT22;13092;51.996;4.458;2024-01-06T06:16:16;6.50;99.90
25112;DHT22;13092;51.996;4.458;2024-01-06T06:18:45;6.00;99.90
25112;DHT22;13092;51.996;4.458;2024-01-06T06:21:13;7.20;99.90
25112;DHT22;13092;51.996;4.458;2024-01-06T06:23:43;5.90;99.90
25112;DHT22;13092;51.996;4.458;2024-01-06T06:26:12;6.80;99.90
25112;DHT22;13092;51.996;4.458;2024-01-06T06:28:41;6.00;99.90
25112;DHT22;13092;51.996;4.458;2024-01-06T06:31:09;6.50;99.90
25112;DHT22;13092;51.996;4.458;2024-01-06T06:33:38;5.80;99.90
25112;DHT22;13092;51.996;4.458;2024-01-06T06:36:07;6.80;99.90
25112;DHT22;13092;51.996;4.458;2024-01-06T06:38:36;5.80;99.90
25112;DHT22;13092;51.996;4.458;2024-01-06T06:41:05;5.90;99.90
25112;DHT22;13092;51.996;4.458;2024-01-06T06:43:34;6.70;99.90
25112;DHT22;13092;51.996;4.458;2024-01-06T06:46:03;5.90;99.90
25112;DHT22;13092;51.996;4.458;2024-01-06T06:48:33;5.90;99.90
25112;DHT22;13092;51.996;4.458;2024-01-06T06:51:03;6.60;99.90
25112;DHT22;13092;51.996;4.458;2024-01-06T06:53:37;5.80;99.90
25112;DHT22;13092;51.996;4.458;2024-01-06T06:56:23;6.00;99.90
25112;DHT22;13092;51.996;4.458;2024-01-06T06:58:57;5.80;99.90
25112;DHT22;13092;51.996;4.458;2024-01-06T07:01:29;5.90;99.90
25112;DHT22;13092;51.996;4.458;2024-01-06T07:04:00;5.90;99.90
25112;DHT22;13092;51.996;4.458;2024-01-06T07:08:59;5.80;99.90
25112;DHT22;13092;51.996;4.458;2024-01-06T07:11:30;5.80;99.90
25112;DHT22;13092;51.996;4.458;2024-01-06T07:14:00;5.80;99.90
25112;DHT22;13092;51.996;4.458;2024-01-06T07:16:30;5.40;99.90
25112;DHT22;13092;51.996;4.458;2024-01-06T07:19:04;5.70;99.90
25112;DHT22;13092;51.996;4.458;2024-01-06T07:21:34;5.80;99.90
25112;DHT22;13092;51.996;4.458;2024-01-06T07:24:03;5.90;99.90
25112;DHT22;13092;51.996;4.458;2024-01-06T07:26:34;5.80;99.90
25112;DHT22;13092;51.996;4.458;2024-01-06T07:31:33;5.80;99.90
25112;DHT22;13092;51.996;4.458;2024-01-06T07:39:00;5.80;99.90
25112;DHT22;13092;51.996;4.458;2024-01-06T07:41:33;6.90;99.90
25112;DHT22;13092;51.996;4.458;2024-01-06T07:44:17;6.40;99.90
25112;DHT22;13092;51.996;4.458;2024-01-06T07:46:52;5.60;99.90
25112;DHT22;13092;51.996;4.458;2024-01-06T07:54:46;6.80;99.90
25112;DHT22;13092;51.996;4.458;2024-01-06T07:57:41;5.80;99.90
25112;DHT22;13092;51.996;4.458;2024-01-06T08:00:26;5.70;99.90
25112;DHT22;13092;51.996;4.458;2024-01-06T08:03:32;5.80;99.90
25112;DHT22;13092;51.996;4.458;2024-01-06T08:12:48;5.60;99.90
25112;DHT22;13092;51.996;4.458;2024-01-06T08:15:18;5.70;99.90
25112;DHT22;13092;51.996;4.458;2024-01-06T08:17:47;7.30;99.90
25112;DHT22;13092;51.996;4.458;2024-01-06T08:20:16;5.40;99.90
25112;DHT22;13092;51.996;4.458;2024-01-06T08:22:44;5.80;99.90
25112;DHT22;13092;51.996;4.458;2024-01-06T08:30:15;5.80;99.90
25112;DHT22;13092;51.996;4.458;2024-01-06T08:33:02;7.10;99.90
25112;DHT22;13092;51.996;4.458;2024-01-06T08:35:34;5.70;99.90
25112;DHT22;13092;51.996;4.458;2024-01-06T08:38:07;7.20;99.90
25112;DHT22;13092;51.996;4.458;2024-01-06T08:48:46;5.90;99.90
25112;DHT22;13092;51.996;4.458;2024-01-06T08:51:16;5.80;99.90
25112;DHT22;13092;51.996;4.458;2024-01-06T08:56:18;5.90;99.90
25112;DHT22;13092;51.996;4.458;2024-01-06T08:58:47;5.70;99.90
25112;DHT22;13092;51.996;4.458;2024-01-06T09:05:24;5.80;99.90
25112;DHT22;13092;51.996;4.458;2024-01-06T09:08:00;5.70;99.90
25112;DHT22;13092;51.996;4.458;2024-01-06T09:10:50;5.80;99.90
25112;DHT22;13092;51.996;4.458;2024-01-06T09:14:19;5.20;99.90
25112;DHT22;13092;51.996;4.458;2024-01-06T09:17:20;6.00;99.90
25112;DHT22;13092;51.996;4.458;2024-01-06T09:23:38;5.30;99.90
25112;DHT22;13092;51.996;4.458;2024-01-06T09:26:58;5.90;99.90
25112;DHT22;13092;51.996;4.458;2024-01-06T09:29:50;5.90;99.90
25112;DHT22;13092;51.996;4.458;2024-01-06T09:45:02;4.80;99.90
25112;DHT22;13092;51.996;4.458;2024-01-06T09:48:10;5.90;99.90
25112;DHT22;13092;51.996;4.458;2024-01-06T09:52:20;5.80;99.90
25112;DHT22;13092;51.996;4.458;2024-01-06T09:55:25;6.00;99.90
25112;DHT22;13092;51.996;4.458;2024-01-06T10:23:38;6.20;99.90
25112;DHT22;13092;51.996;4.458;2024-01-06T10:29:24;5.40;99.90
25112;DHT22;13092;51.996;4.458;2024-01-06T10:32:48;5.70;99.90
25112;DHT22;13092;51.996;4.458;2024-01-06T10:35:37;6.00;99.90
25112;DHT22;13092;51.996;4.458;2024-01-06T10:38:26;7.30;99.90
25112;DHT22;13092;51.996;4.458;2024-01-06T10:40:58;6.10;99.90
25112;DHT22;13092;51.996;4.458;2024-01-06T10:49:06;5.90;99.90
25112;DHT22;13092;51.996;4.458;2024-01-06T10:57:27;5.90;99.90
25112;DHT22;13092;51.996;4.458;2024-01-06T11:00:00;5.80;99.90
25112;DHT22;13092;51.996;4.458;2024-01-06T12:17:44;6.20;99.90
25112;DHT22;13092;51.996;4.458;2024-01-06T12:38:35;7.40;99.90
25112;DHT22;13092;51.996;4.458;2024-01-06T12:41:52;6.40;99.90
25112;DHT22;13092;51.996;4.458;2024-01-06T12:56:04;6.50;99.90
25112;DHT22;13092;51.996;4.458;2024-01-06T12:59:15;6.40;99.90
25112;DHT22;13092;51.996;4.458;2024-01-06T13:01:48;6.40;99.90
25112;DHT22;13092;51.996;4.458;2024-01-06T13:04:25;6.40;99.90
25112;DHT22;13092;51.996;4.458;2024-01-06T13:07:23;5.50;99.90
25112;DHT22;13092;51.996;4.458;2024-01-06T13:09:54;5.50;99.90
25112;DHT22;13092;51.996;4.458;2024-01-06T13:12:32;6.50;99.90
25112;DHT22;13092;51.996;4.458;2024-01-06T13:20:19;6.40;99.90
25112;DHT22;13092;51.996;4.458;2024-01-06T13:22:49;6.40;99.90
25112;DHT22;13092;51.996;4.458;2024-01-06T13:27:53;7.30;99.90
25112;DHT22;13092;51.996;4.458;2024-01-06T13:30:22;6.30;99.90
25112;DHT22;13092;51.996;4.458;2024-01-06T13:32:52;6.30;99.90
25112;DHT22;13092;51.996;4.458;2024-01-06T13:35:22;6.10;99.90
25112;DHT22;13092;51.996;4.458;2024-01-06T13:37:56;5.10;99.90
25112;DHT22;13092;51.996;4.458;2024-01-06T13:40:28;8.00;99.90
25112;DHT22;13092;51.996;4.458;2024-01-06T13:43:00;7.30;99.90
25112;DHT22;13092;51.996;4.458;2024-01-06T13:53:04;6.30;99.90
25112;DHT22;13092;51.996;4.458;2024-01-06T13:55:34;7.40;99.90
25112;DHT22;13092;51.996;4.458;2024-01-06T13:58:06;6.20;99.90
25112;DHT22;13092;51.996;4.458;2024-01-06T14:10:37;6.20;99.90
25112;DHT22;13092;51.996;4.458;2024-01-06T14:16:18;4.90;99.90
25112;DHT22;13092;51.996;4.458;2024-01-06T14:18:48;6.60;99.90
25112;DHT22;13092;51.996;4.458;2024-01-06T14:21:31;6.10;99.90
25112;DHT22;13092;51.996;4.458;2024-01-06T14:24:02;6.70;99.90
25112;DHT22;13092;51.996;4.458;2024-01-06T14:26:33;6.00;99.90
25112;DHT22;13092;51.996;4.458;2024-01-06T14:31:41;6.20;99.90
25112;DHT22;13092;51.996;4.458;2024-01-06T14:34:11;6.20;99.90
25112;DHT22;13092;51.996;4.458;2024-01-06T14:36:39;6.60;99.90
25112;DHT22;13092;51.996;4.458;2024-01-06T14:39:14;7.50;99.90
25112;DHT22;13092;51.996;4.458;2024-01-06T14:41:48;7.00;99.90
25112;DHT22;13092;51.996;4.458;2024-01-06T14:44:20;6.30;99.90
25112;DHT22;13092;51.996;4.458;2024-01-06T14:46:53;6.10;99.90
25112;DHT22;13092;51.996;4.458;2024-01-06T14:52:02;6.20;99.90
25112;DHT22;13092;51.996;4.458;2024-01-06T14:54:31;6.10;99.90
25112;DHT22;13092;51.996;4.458;2024-01-06T14:57:00;7.10;99.90
25112;DHT22;13092;51.996;4.458;2024-01-06T14:59:30;6.00;99.90
25112;DHT22;13092;51.996;4.458;2024-01-06T15:02:08;7.20;99.90
25112;DHT22;13092;51.996;4.458;2024-01-06T15:04:37;6.20;99.90
25112;DHT22;13092;51.996;4.458;2024-01-06T15:07:17;6.00;99.90
25112;DHT22;13092;51.996;4.458;2024-01-06T15:09:58;6.20;99.90
25112;DHT22;13092;51.996;4.458;2024-01-06T15:12:32;7.20;99.90
25112;DHT22;13092;51.996;4.458;2024-01-06T15:15:11;5.60;99.90
25112;DHT22;13092;51.996;4.458;2024-01-06T15:18:09;5.20;99.90
25112;DHT22;13092;51.996;4.458;2024-01-06T15:20:39;7.20;99.90
25112;DHT22;13092;51.996;4.458;2024-01-06T15:23:09;6.70;99.90
25112;DHT22;13092;51.996;4.458;2024-01-06T15:30:47;5.90;99.90
25112;DHT22;13092;51.996;4.458;2024-01-06T15:33:20;5.80;99.90
25112;DHT22;13092;51.996;4.458;2024-01-06T15:45:51;5.90;99.90
25112;DHT22;13092;51.996;4.458;2024-01-06T15:48:23;7.10;99.90
25112;DHT22;13092;51.996;4.458;2024-01-06T15:53:22;6.00;99.90
25112;DHT22;13092;51.996;4.458;2024-01-06T15:58:22;6.00;99.90
25112;DHT22;13092;51.996;4.458;2024-01-06T16:03:24;5.90;99.90
25112;DHT22;13092;51.996;4.458;2024-01-06T16:06:33;5.90;99.90
25112;DHT22;13092;51.996;4.458;2024-01-06T16:09:46;6.10;99.90
25112;DHT22;13092;51.996;4.458;2024-01-06T16:12:25;4.80;99.90
25112;DHT22;13092;51.996;4.458;2024-01-06T16:20:36;5.60;99.90
25112;DHT22;13092;51.996;4.458;2024-01-06T16:23:45;5.50;99.90
25112;DHT22;13092;51.996;4.458;2024-01-06T16:26:32;5.50;99.90
25112;DHT22;13092;51.996;4.458;2024-01-06T16:29:23;5.40;99.90
25112;DHT22;13092;51.996;4.458;2024-01-06T16:35:39;5.40;99.90
25112;DHT22;13092;51.996;4.458;2024-01-06T16:38:54;5.40;99.90
25112;DHT22;13092;51.996;4.458;2024-01-06T16:41:41;5.20;99.90
25112;DHT22;13092;51.996;4.458;2024-01-06T16:44:53;4.40;99.90
25112;DHT22;13092;51.996;4.458;2024-01-06T16:47:36;4.70;99.90
25112;DHT22;13092;51.996;4.458;2024-01-06T16:50:53;5.20;99.90
25112;DHT22;13092;51.996;4.458;2024-01-06T16:53:44;5.30;99.90
25112;DHT22;13092;51.996;4.458;2024-01-06T16:56:57;5.40;99.90
25112;DHT22;13092;51.996;4.458;2024-01-06T16:59:31;5.30;99.90
25112;DHT22;13092;51.996;4.458;2024-01-06T17:02:32;4.70;99.90
25112;DHT22;13092;51.996;4.458;2024-01-06T17:05:42;5.00;99.90
25112;DHT22;13092;51.996;4.458;2024-01-06T17:08:13;5.30;99.90
25112;DHT22;13092;51.996;4.458;2024-01-06T17:13:11;5.30;99.90
25112;DHT22;13092;51.996;4.458;2024-01-06T17:15:40;5.20;99.90
25112;DHT22;13092;51.996;4.458;2024-01-06T17:18:08;6.00;99.90
25112;DHT22;13092;51.996;4.458;2024-01-06T17:20:40;6.10;99.90
25112;DHT22;13092;51.996;4.458;2024-01-06T17:23:11;5.30;99.90
25112;DHT22;13092;51.996;4.458;2024-01-06T17:25:42;5.70;99.90
25112;DHT22;13092;51.996;4.458;2024-01-06T17:28:14;5.80;99.90
25112;DHT22;13092;51.996;4.458;2024-01-06T17:30:43;5.10;99.90
25112;DHT22;13092;51.996;4.458;2024-01-06T17:38:11;5.10;99.90
25112;DHT22;13092;51.996;4.458;2024-01-06T17:40:42;5.00;99.90
25112;DHT22;13092;51.996;4.458;2024-01-06T17:43:14;5.10;99.90
25112;DHT22;13092;51.996;4.458;2024-01-06T17:45:42;5.60;99.90
25112;DHT22;13092;51.996;4.458;2024-01-06T17:48:10;5.00;99.90
25112;DHT22;13092;51.996;4.458;2024-01-06T17:50:39;6.10;99.90
25112;DHT22;13092;51.996;4.458;2024-01-06T17:53:07;5.80;99.90
25112;DHT22;13092;51.996;4.458;2024-01-06T17:55:35;6.20;99.90
25112;DHT22;13092;51.996;4.458;2024-01-06T17:58:05;4.80;99.90
25112;DHT22;13092;51.996;4.458;2024-01-06T18:00:34;4.50;99.90
25112;DHT22;13092;51.996;4.458;2024-01-06T18:03:03;4.70;99.90
25112;DHT22;13092;51.996;4.458;2024-01-06T18:05:33;4.70;99.90
25112;DHT22;13092;51.996;4.458;2024-01-06T18:08:01;6.00;99.90
25112;DHT22;13092;51.996;4.458;2024-01-06T18:10:29;6.00;99.90
25112;DHT22;13092;51.996;4.458;2024-01-06T18:12:58;5.70;99.90
25112;DHT22;13092;51.996;4.458;2024-01-06T18:15:28;6.00;99.90
25112;DHT22;13092;51.996;4.458;2024-01-06T18:18:00;4.60;99.90
25112;DHT22;13092;51.996;4.458;2024-01-06T18:20:28;4.50;99.90
25112;DHT22;13092;51.996;4.458;2024-01-06T18:22:57;5.80;99.90
25112;DHT22;13092;51.996;4.458;2024-01-06T18:25:41;4.40;99.90
25112;DHT22;13092;51.996;4.458;2024-01-06T18:28:25;4.50;99.90
25112;DHT22;13092;51.996;4.458;2024-01-06T19:33:25;4.10;99.90
25112;DHT22;13092;51.996;4.458;2024-01-06T19:35:54;4.70;99.90
25112;DHT22;13092;51.996;4.458;2024-01-06T19:38:35;5.10;99.90
25112;DHT22;13092;51.996;4.458;2024-01-06T19:41:06;4.00;99.90
25112;DHT22;13092;51.996;4.458;2024-01-06T19:43:38;4.00;99.90
25112;DHT22;13092;51.996;4.458;2024-01-06T19:46:10;4.00;99.90
25112;DHT22;13092;51.996;4.458;2024-01-06T19:48:40;3.30;99.90
25112;DHT22;13092;51.996;4.458;2024-01-06T19:51:11;4.80;99.90
25112;DHT22;13092;51.996;4.458;2024-01-06T19:53:42;4.20;99.90
25112;DHT22;13092;51.996;4.458;2024-01-06T19:56:14;4.20;99.90
25112;DHT22;13092;51.996;4.458;2024-01-06T19:58:51;4.30;99.90
25112;DHT22;13092;51.996;4.458;2024-01-06T20:01:21;5.20;99.90
25112;DHT22;13092;51.996;4.458;2024-01-06T20:03:51;4.20;99.90
25112;DHT22;13092;51.996;4.458;2024-01-06T20:06:22;5.20;99.90
25112;DHT22;13092;51.996;4.458;2024-01-06T20:08:51;4.20;99.90
25112;DHT22;13092;51.996;4.458;2024-01-06T20:11:19;5.60;99.90
25112;DHT22;13092;51.996;4.458;2024-01-06T20:13:49;5.00;99.90
25112;DHT22;13092;51.996;4.458;2024-01-06T20:16:21;4.30;99.90
25112;DHT22;13092;51.996;4.458;2024-01-06T20:18:59;5.60;99.90
25112;DHT22;13092;51.996;4.458;2024-01-06T20:21:29;4.60;99.90
25112;DHT22;13092;51.996;4.458;2024-01-06T20:23:57;5.10;99.90
25112;DHT22;13092;51.996;4.458;2024-01-06T20:26:28;4.70;99.90
25112;DHT22;13092;51.996;4.458;2024-01-06T20:28:57;5.60;99.90
25112;DHT22;13092;51.996;4.458;2024-01-06T20:31:31;3.20;99.90
25112;DHT22;13092;51.996;4.458;2024-01-06T20:34:01;4.20;99.90
25112;DHT22;13092;51.996;4.458;2024-01-06T20:36:32;5.30;99.90
25112;DHT22;13092;51.996;4.458;2024-01-06T20:39:00;5.10;99.90
25112;DHT22;13092;51.996;4.458;2024-01-06T20:41:29;4.30;99.90
25112;DHT22;13092;51.996;4.458;2024-01-06T20:43:58;4.40;99.90
25112;DHT22;13092;51.996;4.458;2024-01-06T20:46:30;5.40;99.90
25112;DHT22;13092;51.996;4.458;2024-01-06T20:49:00;5.50;99.90
25112;DHT22;13092;51.996;4.458;2024-01-06T20:51:35;5.00;99.90
25112;DHT22;13092;51.996;4.458;2024-01-06T20:54:04;4.30;99.90
25112;DHT22;13092;51.996;4.458;2024-01-06T20:56:40;3.70;99.90
25112;DHT22;13092;51.996;4.458;2024-01-06T20:59:08;4.30;99.90
25112;DHT22;13092;51.996;4.458;2024-01-06T21:01:36;5.50;99.90
25112;DHT22;13092;51.996;4.458;2024-01-06T21:04:10;4.40;99.90
25112;DHT22;13092;51.996;4.458;2024-01-06T21:06:39;4.40;99.90
25112;DHT22;13092;51.996;4.458;2024-01-06T21:09:07;5.10;99.90
25112;DHT22;13092;51.996;4.458;2024-01-06T21:11:36;4.70;99.90
25112;DHT22;13092;51.996;4.458;2024-01-06T21:14:08;4.90;99.90
25112;DHT22;13092;51.996;4.458;2024-01-06T21:16:40;5.10;99.90
25112;DHT22;13092;51.996;4.458;2024-01-06T21:19:10;4.20;99.90
25112;DHT22;13092;51.996;4.458;2024-01-06T21:21:43;4.70;99.90
25112;DHT22;13092;51.996;4.458;2024-01-06T21:24:11;4.90;99.90
25112;DHT22;13092;51.996;4.458;2024-01-06T21:26:40;4.50;99.90
25112;DHT22;13092;51.996;4.458;2024-01-06T21:29:09;5.10;99.90
25112;DHT22;13092;51.996;4.458;2024-01-06T21:31:39;5.20;99.90
25112;DHT22;13092;51.996;4.458;2024-01-06T21:34:09;4.80;99.90
25112;DHT22;13092;51.996;4.458;2024-01-06T21:36:38;5.20;99.90
25112;DHT22;13092;51.996;4.458;2024-01-06T21:39:09;5.00;99.90
25112;DHT22;13092;51.996;4.458;2024-01-06T21:41:39;4.30;99.90
25112;DHT22;13092;51.996;4.458;2024-01-06T21:44:08;4.50;99.90
25112;DHT22;13092;51.996;4.458;2024-01-06T21:46:39;4.70;99.90
25112;DHT22;13092;51.996;4.458;2024-01-06T21:49:09;4.00;99.90
25112;DHT22;13092;51.996;4.458;2024-01-06T21:51:46;4.90;99.90
25112;DHT22;13092;51.996;4.458;2024-01-06T21:54:15;5.10;99.90
25112;DHT22;13092;51.996;4.458;2024-01-06T21:56:45;4.70;99.90
25112;DHT22;13092;51.996;4.458;2024-01-06T21:59:14;4.60;99.90
25112;DHT22;13092;51.996;4.458;2024-01-06T22:01:42;4.10;99.90